Icatu, Brazil
Current Conditions -  °F | °C
As of 3:00 PM on Friday 19 Dec 2014 (Local Time) from SBSL Reporting Station
Scattered Clouds Scattered Clouds  
Wind Chill: 90°   Ceiling: Unl
Heat Index: 93°   Visibility: 6mi
Dew Point: 68°   Wind: 20mph
Humidity: 49%   Direction: 40°NE
Pressure: 29.8"   Gusts: NA
Location:  2.78°S, 44.07°W
Report Text: SBSL 191800Z 04017KT 9999 SCT020 32/20 Q1009
Loading
Personal Weather Stations






























Interactive Weather Map New forecast layout! Learn more

10-Day Weather Forecast

Advertisements
Track Severe Weather on mobile